createdAt,value
2019-02-19T00:22:38.875Z,16.60
2019-02-19T03:29:32.532Z,15.20
2019-02-19T03:30:32.541Z,14.80
2019-02-19T03:31:32.370Z,15.70
2019-02-19T03:32:32.281Z,15.70
2019-02-19T03:33:32.204Z,14.60
2019-02-19T03:34:32.111Z,15.50
2019-02-19T03:35:32.030Z,15.00
2019-02-19T03:36:31.933Z,15.20
2019-02-19T03:37:31.845Z,14.50
2019-02-19T03:38:31.777Z,15.00
2019-02-19T03:39:31.684Z,15.20
2019-02-19T03:40:31.594Z,16.10
2019-02-19T03:41:31.506Z,15.40
2019-02-19T03:42:31.420Z,14.60
2019-02-19T03:43:31.337Z,14.70
2019-02-19T03:44:31.244Z,15.00
2019-02-19T03:45:31.169Z,15.00
2019-02-19T03:46:31.084Z,14.30
2019-02-19T03:47:30.993Z,14.90
2019-02-19T03:48:30.909Z,14.70
2019-02-19T03:49:30.822Z,15.00
2019-02-19T03:50:30.735Z,14.70
2019-02-19T03:51:30.647Z,15.00
2019-02-19T03:52:30.569Z,15.10
2019-02-19T03:53:30.482Z,14.80
2019-02-19T03:54:30.399Z,14.90
2019-02-19T03:55:30.308Z,15.40
2019-02-19T03:56:30.223Z,15.90
2019-02-19T03:57:30.135Z,14.50
2019-02-19T03:58:30.047Z,15.00
2019-02-19T03:59:29.972Z,15.20
2019-02-19T04:00:29.885Z,14.60
2019-02-19T04:01:29.797Z,15.40
2019-02-19T04:02:29.712Z,15.90
2019-02-19T04:03:29.624Z,15.30
2019-02-19T04:04:29.534Z,15.80
2019-02-19T04:05:29.463Z,14.80
2019-02-19T04:06:29.360Z,15.60
2019-02-19T04:07:29.283Z,15.20
2019-02-19T04:08:29.208Z,15.80
2019-02-19T04:09:29.113Z,15.50
2019-02-19T04:10:29.024Z,15.50
2019-02-19T04:11:28.936Z,15.40
2019-02-19T04:12:28.847Z,14.60
2019-02-19T04:13:28.765Z,14.70
2019-02-19T04:14:28.684Z,15.10
2019-02-19T04:15:28.597Z,15.40
2019-02-19T04:16:28.509Z,15.70
2019-02-19T04:17:28.423Z,14.80
2019-02-19T04:18:28.337Z,15.00
2019-02-19T04:19:28.248Z,14.70
2019-02-19T04:20:28.163Z,16.00
2019-02-19T04:21:28.087Z,14.80
2019-02-19T04:22:28.001Z,15.60
2019-02-19T04:23:27.912Z,15.00
2019-02-19T04:24:27.823Z,15.40
2019-02-19T04:25:27.739Z,15.10
2019-02-19T04:26:27.649Z,14.60
2019-02-19T04:27:27.576Z,15.30
2019-02-19T04:28:27.487Z,15.00
2019-02-19T04:29:27.400Z,15.40
2019-02-19T04:30:27.314Z,14.90
2019-02-19T04:31:27.226Z,15.10
2019-02-19T04:32:27.137Z,14.30
2019-02-19T04:33:27.050Z,15.20
2019-02-19T04:34:26.961Z,15.20
2019-02-19T04:35:26.887Z,14.90
2019-02-19T04:36:26.803Z,14.30
2019-02-19T04:37:26.713Z,14.70
2019-02-19T04:38:26.628Z,14.40
2019-02-19T04:39:26.539Z,14.50
2019-02-19T04:40:26.455Z,14.60
2019-02-19T04:41:26.363Z,14.30
2019-02-19T04:42:26.276Z,15.30
2019-02-19T04:43:26.200Z,14.90
2019-02-19T04:44:26.127Z,14.10
2019-02-19T04:45:26.028Z,13.70
2019-02-19T04:46:31.484Z,15.40
2019-02-19T04:47:25.862Z,15.70
2019-02-19T04:48:25.764Z,14.20
2019-02-19T04:49:25.676Z,14.50
2019-02-19T04:50:25.600Z,14.70
2019-02-19T04:51:25.532Z,14.10
2019-02-19T04:52:25.426Z,14.50
2019-02-19T04:53:25.338Z,13.70
2019-02-19T04:54:25.345Z,13.70
2019-02-19T04:55:25.165Z,13.70
2019-02-19T04:56:25.086Z,14.50
2019-02-19T04:57:25.004Z,14.50
2019-02-19T04:58:24.917Z,15.20
2019-02-19T04:59:24.829Z,14.50
2019-02-19T05:00:24.745Z,14.40
2019-02-19T05:01:24.653Z,14.10
2019-02-19T05:02:24.564Z,13.60
2019-02-19T05:03:24.498Z,14.50
2019-02-19T05:04:24.402Z,14.30
2019-02-19T05:05:24.319Z,14.30
2019-02-19T05:06:24.232Z,14.30
2019-02-19T05:07:24.142Z,14.60
2019-02-19T05:08:24.062Z,14.80
2019-02-19T05:09:23.982Z,13.50
2019-02-19T05:10:23.880Z,13.50
2019-02-19T05:11:23.793Z,14.20
2019-02-19T05:12:23.728Z,14.00
2019-02-19T05:13:23.628Z,14.80
2019-02-19T05:14:23.542Z,14.50
2019-02-19T05:15:23.459Z,14.00
2019-02-19T05:16:23.369Z,14.60
2019-02-19T05:17:23.281Z,13.70
2019-02-19T05:18:23.193Z,13.90
2019-02-19T05:19:23.120Z,13.90
2019-02-19T05:20:23.036Z,13.70
2019-02-19T05:21:22.957Z,14.30
2019-02-19T05:22:22.856Z,13.60
2019-02-19T05:23:22.769Z,14.30
2019-02-19T05:24:22.680Z,14.80
2019-02-19T05:25:22.603Z,14.20
2019-02-19T05:26:22.516Z,14.10
2019-02-19T05:27:22.430Z,13.90
2019-02-19T05:28:22.357Z,14.00
2019-02-19T05:29:22.259Z,14.50
2019-02-19T05:30:22.172Z,13.90
2019-02-19T05:31:22.087Z,14.50
2019-02-19T05:32:21.993Z,13.80
2019-02-19T05:33:21.908Z,12.90
2019-02-19T05:34:21.832Z,13.60
2019-02-19T05:35:21.748Z,13.30
2019-02-19T05:36:21.657Z,13.70
2019-02-19T05:37:21.586Z,13.10
2019-02-19T05:38:21.484Z,13.50
2019-02-19T05:39:21.405Z,13.10
2019-02-19T05:40:21.308Z,13.70
2019-02-19T05:41:21.222Z,13.70
2019-02-19T05:42:21.146Z,13.30
2019-02-19T05:43:21.058Z,13.90
2019-02-19T05:44:20.969Z,13.40
2019-02-19T05:45:20.882Z,13.00
2019-02-19T05:46:20.806Z,13.00
2019-02-19T05:47:20.707Z,13.50
2019-02-19T05:48:20.636Z,13.00
2019-02-19T05:49:20.546Z,13.30
2019-02-19T05:50:20.459Z,12.50
2019-02-19T05:51:20.372Z,12.30
2019-02-19T05:52:20.307Z,12.60
2019-02-19T05:53:20.196Z,12.30
2019-02-19T05:54:20.110Z,13.40
2019-02-19T05:55:20.024Z,13.10
2019-02-19T05:56:19.946Z,12.60
2019-02-19T05:57:19.899Z,12.90
2019-02-19T05:58:19.770Z,12.40
2019-02-19T05:59:19.691Z,12.90
2019-02-19T06:00:19.597Z,13.10
2019-02-19T06:01:19.511Z,13.60
2019-02-19T06:02:19.422Z,12.40
2019-02-19T06:03:19.347Z,12.90
2019-02-19T06:04:19.259Z,12.60
2019-02-19T06:05:19.170Z,13.00
2019-02-19T06:06:19.083Z,13.40
2019-02-19T06:07:18.996Z,12.60
2019-02-19T06:08:18.912Z,13.10
2019-02-19T06:09:18.823Z,12.40
2019-02-19T06:10:18.734Z,13.40
2019-02-19T06:11:18.659Z,12.30
2019-02-19T06:12:18.574Z,12.80
2019-02-19T06:13:18.486Z,12.90
2019-02-19T06:14:18.398Z,12.60
2019-02-19T06:15:18.318Z,12.50
2019-02-19T06:16:18.222Z,12.60
2019-02-19T06:17:18.135Z,13.20
2019-02-19T06:18:18.063Z,13.10
2019-02-19T06:19:17.975Z,12.80
2019-02-19T06:20:17.888Z,13.60
2019-02-19T06:21:17.799Z,13.50
2019-02-19T06:22:17.715Z,13.80
2019-02-19T06:23:17.626Z,13.10
2019-02-19T06:24:17.550Z,13.20
2019-02-19T06:25:17.464Z,13.30
2019-02-19T06:26:17.376Z,13.10
2019-02-19T06:27:17.289Z,13.50
2019-02-19T06:28:17.198Z,12.80
2019-02-19T06:29:17.114Z,13.80
2019-02-19T06:30:17.023Z,12.70
2019-02-19T06:31:16.961Z,12.50
2019-02-19T06:32:16.863Z,12.90
2019-02-19T06:33:16.777Z,12.40
2019-02-19T06:34:16.693Z,14.00
2019-02-19T06:35:16.619Z,12.10
2019-02-19T06:36:16.512Z,13.50
2019-02-19T06:37:16.425Z,13.00
2019-02-19T06:38:16.349Z,12.60
2019-02-19T06:39:16.263Z,13.30
2019-02-19T06:40:16.176Z,13.20
2019-02-19T06:41:16.089Z,12.60
2019-02-19T06:42:16.002Z,12.90
2019-02-19T06:43:15.916Z,13.20
2019-02-19T06:44:15.842Z,12.70
2019-02-19T06:45:15.763Z,13.20
2019-02-19T06:46:15.663Z,13.60
2019-02-19T06:47:15.575Z,13.30
2019-02-19T06:48:15.503Z,12.50
2019-02-19T06:49:15.406Z,12.70
2019-02-19T06:50:15.328Z,12.80
2019-02-19T06:51:15.241Z,12.70
2019-02-19T06:52:15.164Z,12.60
2019-02-19T06:53:15.065Z,12.40
2019-02-19T06:54:14.978Z,13.10
2019-02-19T06:55:14.896Z,12.40
2019-02-19T06:56:14.802Z,12.80
2019-02-19T06:57:14.726Z,12.70
2019-02-19T06:58:14.639Z,12.00
2019-02-19T06:59:14.552Z,13.00
2019-02-19T07:00:14.466Z,13.10
2019-02-19T07:01:14.383Z,12.50
2019-02-19T07:02:14.304Z,13.00
2019-02-19T07:03:14.218Z,13.00
2019-02-19T07:04:14.127Z,12.80
2019-02-19T07:05:14.041Z,12.60
2019-02-19T07:06:13.952Z,12.30
2019-02-19T07:07:13.866Z,12.60
2019-02-19T07:08:13.793Z,11.80
2019-02-19T07:09:13.705Z,13.00
2019-02-19T07:10:13.618Z,12.80
2019-02-19T07:11:13.530Z,11.90
2019-02-19T07:12:13.444Z,12.80
2019-02-19T07:13:13.357Z,12.00
2019-02-19T07:14:13.280Z,12.30
2019-02-19T07:15:13.194Z,12.10
2019-02-19T07:16:13.103Z,11.80
2019-02-19T07:17:15.744Z,13.80
2019-02-19T07:18:12.929Z,11.40
2019-02-19T07:19:12.855Z,11.80
2019-02-19T07:20:12.869Z,12.40
2019-02-19T07:21:12.694Z,12.10
2019-02-19T07:22:12.597Z,11.70
2019-02-19T07:23:12.506Z,11.60
2019-02-19T07:24:12.431Z,11.60
2019-02-19T07:25:12.342Z,12.30
2019-02-19T07:26:12.254Z,12.60
2019-02-19T07:27:12.167Z,11.90
2019-02-19T07:28:12.080Z,12.30
2019-02-19T07:29:12.008Z,12.10
2019-02-19T07:30:11.917Z,12.20
2019-02-19T07:31:11.843Z,11.70
2019-02-19T07:32:11.746Z,11.90
2019-02-19T07:33:11.658Z,12.50
2019-02-19T07:34:11.582Z,12.20
2019-02-19T07:35:11.495Z,12.00
2019-02-19T07:36:11.412Z,11.50
2019-02-19T07:37:11.318Z,11.80
2019-02-19T07:38:11.243Z,12.10
2019-02-19T07:39:11.155Z,12.70
2019-02-19T07:40:11.074Z,11.80
2019-02-19T07:41:10.983Z,12.10
2019-02-19T07:42:10.912Z,11.70
2019-02-19T07:43:10.823Z,10.90
2019-02-19T07:44:10.735Z,12.20
2019-02-19T07:45:10.648Z,11.70
2019-02-19T07:46:10.571Z,11.60
2019-02-19T07:47:10.484Z,11.70
2019-02-19T07:48:10.394Z,11.40
2019-02-19T07:49:10.307Z,11.40
2019-02-19T07:50:10.231Z,11.70
2019-02-19T07:51:10.144Z,12.20
2019-02-19T07:52:10.067Z,11.90
2019-02-19T07:53:09.973Z,11.20
2019-02-19T07:54:09.886Z,11.30
2019-02-19T07:55:09.809Z,11.60
2019-02-19T07:56:09.721Z,11.50
2019-02-19T07:57:09.632Z,11.30
2019-02-19T07:58:09.557Z,11.00
2019-02-19T07:59:09.471Z,11.00
2019-02-19T08:00:09.384Z,11.20
2019-02-19T08:01:09.296Z,12.00
2019-02-19T08:02:09.223Z,11.40
2019-02-19T08:03:09.133Z,11.00
2019-02-19T08:04:09.051Z,11.10
2019-02-19T08:05:08.962Z,11.30
2019-02-19T08:06:08.887Z,10.10
2019-02-19T08:07:08.798Z,10.80
2019-02-19T08:08:08.709Z,10.20
2019-02-19T08:09:08.634Z,10.70
2019-02-19T08:10:08.548Z,11.10
2019-02-19T08:11:08.458Z,10.80
2019-02-19T08:12:08.386Z,11.20
2019-02-19T08:13:08.300Z,10.60
2019-02-19T08:14:08.214Z,11.30
2019-02-19T08:15:08.126Z,10.40
2019-02-19T08:16:08.050Z,10.60
2019-02-19T08:17:07.962Z,10.40
2019-02-19T08:18:07.875Z,10.40
2019-02-19T08:19:07.800Z,10.60
2019-02-19T08:20:15.437Z,9.80
2019-02-19T08:21:07.623Z,11.00
2019-02-19T08:22:07.549Z,10.50
2019-02-19T08:23:07.461Z,10.30
2019-02-19T08:24:07.379Z,9.80
2019-02-19T08:25:07.300Z,10.10
2019-02-19T08:26:07.217Z,10.00
2019-02-19T08:27:07.126Z,10.20
2019-02-19T08:28:07.049Z,10.40
2019-02-19T08:29:13.426Z,9.90
2019-02-19T08:30:06.875Z,10.30
2019-02-19T08:31:06.802Z,10.60
2019-02-19T08:32:06.711Z,10.20
2019-02-19T08:33:06.625Z,9.60
2019-02-19T08:34:06.550Z,10.20
2019-02-19T08:35:06.462Z,10.40
2019-02-19T08:36:06.379Z,10.30
2019-02-19T08:37:06.302Z,10.30
2019-02-19T08:38:06.214Z,10.40
2019-02-19T08:39:06.134Z,10.70
2019-02-19T08:40:06.052Z,10.50
2019-02-19T08:41:05.963Z,10.50
2019-02-19T08:42:05.900Z,10.70
2019-02-19T08:43:05.805Z,10.70
2019-02-19T08:44:05.715Z,10.90
2019-02-19T08:45:05.641Z,10.80
2019-02-19T08:46:05.554Z,11.20
2019-02-19T08:47:05.467Z,11.30
2019-02-19T08:48:05.400Z,10.70
2019-02-19T08:49:05.304Z,11.10
2019-02-19T08:50:05.232Z,11.00
2019-02-19T08:51:05.138Z,10.60
2019-02-19T08:52:05.065Z,11.20
2019-02-19T08:53:04.982Z,11.30
2019-02-19T08:54:04.892Z,11.00
2019-02-19T08:55:04.817Z,11.60
2019-02-19T08:56:04.731Z,11.60
2019-02-19T08:57:04.640Z,11.60
2019-02-19T08:58:04.565Z,11.80
2019-02-19T08:59:04.478Z,11.70
2019-02-19T09:00:04.405Z,11.90
2019-02-19T09:01:04.330Z,12.20
2019-02-19T09:02:04.230Z,11.80
2019-02-19T09:03:04.157Z,12.30
2019-02-19T09:04:04.068Z,11.90
2019-02-19T09:05:03.993Z,12.70
2019-02-19T09:06:03.905Z,11.90
2019-02-19T09:07:03.819Z,12.00
2019-02-19T09:08:03.755Z,12.50
2019-02-19T09:09:03.654Z,12.80
2019-02-19T09:10:03.582Z,12.60
2019-02-19T09:11:03.493Z,11.70
2019-02-19T09:12:03.432Z,12.60
2019-02-19T09:13:03.342Z,12.80
2019-02-19T09:14:03.244Z,12.50
2019-02-19T09:15:03.168Z,12.60
2019-02-19T09:16:03.090Z,13.10
2019-02-19T09:17:03.004Z,13.10
2019-02-19T09:18:02.919Z,12.70
2019-02-19T09:19:02.841Z,13.40
2019-02-19T09:20:02.754Z,12.80
2019-02-19T09:21:02.688Z,13.50
2019-02-19T09:22:02.591Z,13.70
2019-02-19T09:23:02.513Z,13.40
2019-02-19T09:24:09.229Z,13.40
2019-02-19T09:25:02.357Z,14.00
2019-02-19T09:26:02.283Z,13.80
2019-02-19T09:27:02.186Z,13.20
2019-02-19T09:28:02.093Z,13.70
2019-02-19T09:29:02.018Z,14.30
2019-02-19T09:30:01.935Z,14.60
2019-02-19T09:31:01.856Z,14.40
2019-02-19T09:32:01.771Z,14.30
2019-02-19T09:33:01.683Z,13.90
2019-02-19T09:34:01.623Z,13.50
2019-02-19T09:35:01.521Z,14.00
2019-02-19T09:36:01.445Z,14.10
2019-02-19T09:37:01.358Z,13.30
2019-02-19T09:38:01.284Z,14.60
2019-02-19T09:39:01.197Z,14.10
2019-02-19T09:40:01.113Z,14.40
2019-02-19T09:41:01.033Z,14.10
2019-02-19T09:42:00.947Z,14.90
2019-02-19T09:43:00.872Z,14.60
2019-02-19T09:44:00.784Z,14.20
2019-02-19T09:45:00.698Z,14.50
2019-02-19T09:46:00.626Z,15.50
2019-02-19T09:47:00.536Z,15.20
2019-02-19T09:48:01.497Z,14.90
2019-02-19T09:49:00.376Z,14.60
2019-02-19T09:50:00.369Z,15.00
2019-02-19T09:51:00.210Z,14.70
2019-02-19T09:52:00.122Z,15.40
2019-02-19T09:53:00.446Z,15.30
2019-02-19T09:53:59.960Z,15.70
2019-02-19T09:54:59.895Z,15.30
2019-02-19T09:55:59.799Z,15.60
2019-02-19T09:56:59.722Z,15.60
2019-02-19T09:57:59.636Z,15.80
2019-02-19T09:58:59.555Z,16.10
2019-02-19T09:59:59.723Z,15.10
2019-02-19T10:00:59.384Z,15.80
2019-02-19T10:01:59.310Z,15.30
2019-02-19T10:02:59.222Z,15.30
2019-02-19T10:03:59.148Z,16.00
2019-02-19T10:04:59.074Z,15.60
2019-02-19T10:05:58.975Z,16.00
2019-02-19T10:06:58.900Z,16.20
2019-02-19T10:07:58.812Z,16.60
2019-02-19T10:08:58.736Z,16.70
2019-02-19T10:09:58.649Z,15.90
2019-02-19T10:10:58.576Z,16.80
2019-02-19T10:11:58.492Z,16.10
2019-02-19T10:12:58.399Z,16.50
2019-02-19T10:13:58.322Z,15.80
2019-02-19T10:14:58.236Z,16.30
2019-02-19T10:15:58.365Z,16.50
2019-02-19T10:16:58.890Z,17.00
2019-02-19T10:17:58.750Z,16.40
2019-02-19T12:00:23.199Z,14.50
2019-02-19T12:01:20.512Z,14.20
2019-02-19T12:02:20.412Z,14.10
2019-02-19T12:05:26.689Z,13.20
2019-02-19T12:06:26.598Z,13.50
2019-02-19T12:07:26.524Z,13.60
2019-02-19T12:08:26.446Z,13.30
2019-02-19T12:09:26.359Z,13.80
2019-02-19T12:10:26.274Z,13.70
2019-02-19T12:11:26.184Z,13.70
2019-02-19T12:12:26.111Z,13.20
2019-02-19T12:13:26.026Z,13.30
2019-02-19T12:14:25.950Z,13.00
2019-02-19T12:15:34.544Z,13.60
2019-02-19T12:16:25.788Z,12.70
2019-02-19T12:17:25.698Z,13.30
2019-02-19T12:18:25.611Z,13.50
2019-02-19T12:19:25.535Z,13.70
2019-02-19T12:20:25.448Z,14.20
2019-02-19T12:21:25.374Z,14.20
2019-02-19T12:22:25.300Z,14.30
2019-02-19T12:23:25.210Z,13.40
2019-02-19T12:24:25.130Z,13.70
2019-02-19T12:25:25.050Z,14.30
2019-02-19T12:26:24.962Z,14.40
2019-02-19T12:27:24.876Z,13.20
2019-02-19T12:28:24.799Z,13.80
2019-02-19T12:29:24.712Z,14.30
2019-02-19T12:30:24.649Z,14.10
2019-02-19T12:31:24.550Z,13.50
2019-02-19T12:32:24.476Z,13.40
2019-02-19T12:33:24.401Z,13.80
2019-02-19T12:34:24.314Z,13.40
2019-02-19T12:35:24.227Z,13.70
2019-02-19T12:36:24.154Z,13.60
2019-02-19T12:37:24.063Z,13.50
2019-02-19T12:38:23.991Z,14.40
2019-02-19T12:39:23.904Z,13.40
2019-02-19T12:40:23.829Z,13.50
2019-02-19T12:41:23.743Z,13.70
2019-02-19T12:42:23.652Z,14.40
2019-02-19T12:43:23.576Z,13.20
2019-02-19T12:44:23.491Z,13.10
2019-02-19T12:45:23.414Z,13.60
2019-02-19T12:46:23.329Z,13.70
2019-02-19T12:47:23.253Z,13.30
2019-02-19T12:48:23.190Z,13.60
2019-02-19T12:49:23.091Z,13.60
2019-02-19T12:50:23.001Z,13.30
2019-02-19T12:51:26.469Z,13.90
2019-02-19T12:52:22.840Z,13.60
2019-02-19T12:53:22.768Z,14.00
2019-02-19T12:54:22.676Z,13.70
2019-02-19T12:55:22.604Z,13.60
2019-02-19T12:56:22.532Z,14.30
2019-02-19T12:57:22.442Z,14.20
2019-02-19T12:58:22.354Z,13.70
2019-02-19T12:59:22.266Z,13.90
2019-02-19T13:00:22.189Z,13.70
2019-02-19T13:01:22.103Z,14.70
2019-02-19T13:02:22.029Z,14.30
2019-02-19T13:03:21.939Z,14.80
2019-02-19T13:04:21.866Z,15.00
2019-02-19T13:05:21.783Z,14.50
2019-02-19T13:06:21.710Z,13.90
2019-02-19T13:07:21.617Z,15.50
2019-02-19T13:08:21.540Z,14.60
2019-02-19T13:09:21.454Z,14.70
2019-02-19T13:10:21.379Z,15.20
2019-02-19T13:11:21.293Z,14.70
2019-02-19T13:12:21.205Z,14.90
2019-02-19T13:13:21.130Z,14.60
2019-02-19T13:14:21.043Z,14.60
2019-02-19T13:15:20.968Z,14.30
2019-02-19T13:16:20.879Z,14.70
2019-02-19T13:17:20.804Z,14.90
2019-02-19T13:18:20.716Z,14.90
2019-02-19T13:19:20.642Z,14.60
2019-02-19T13:20:20.557Z,14.50
2019-02-19T13:21:20.484Z,14.10
2019-02-19T13:22:20.406Z,14.40
2019-02-19T13:23:20.307Z,14.30
2019-02-19T13:24:20.233Z,14.20
2019-02-19T13:25:20.143Z,14.20
2019-02-19T13:26:20.069Z,14.90
2019-02-19T13:27:19.983Z,13.20
2019-02-19T13:28:19.905Z,13.60
2019-02-19T13:29:19.817Z,13.10
2019-02-19T13:30:19.755Z,13.70
2019-02-19T13:31:19.656Z,14.20
2019-02-19T13:32:19.570Z,14.20
2019-02-19T13:33:19.508Z,13.20
2019-02-19T13:34:19.407Z,13.80
2019-02-19T13:35:19.333Z,13.50
2019-02-19T13:36:19.245Z,13.70
2019-02-19T13:37:19.167Z,12.60
2019-02-19T13:38:19.082Z,12.80
2019-02-19T13:39:19.010Z,12.80
2019-02-19T13:40:18.918Z,12.50
2019-02-19T13:41:18.843Z,12.90
2019-02-19T13:42:18.756Z,12.00
2019-02-19T13:43:18.670Z,11.90
2019-02-19T13:44:18.596Z,11.80
2019-02-19T13:45:18.513Z,12.50
2019-02-19T13:46:18.434Z,11.40
2019-02-19T13:47:18.359Z,11.70
2019-02-19T13:48:18.269Z,11.60
2019-02-19T13:49:18.191Z,11.70
2019-02-19T13:50:18.095Z,11.00
2019-02-19T13:51:18.019Z,11.50
2019-02-19T13:52:22.768Z,10.70
2019-02-19T13:53:17.859Z,11.10
2019-02-19T13:54:17.774Z,10.40
2019-02-19T13:55:17.700Z,10.70
2019-02-19T13:56:17.614Z,10.20
2019-02-19T13:57:17.536Z,10.10
2019-02-19T13:58:17.449Z,10.20
2019-02-19T13:59:17.360Z,9.90
2019-02-19T14:00:17.289Z,9.80
2019-02-19T14:01:17.195Z,9.90
2019-02-19T14:02:17.120Z,9.00
2019-02-19T14:03:17.034Z,9.30
2019-02-19T14:04:16.961Z,9.20
2019-02-19T14:05:16.873Z,9.80
2019-02-19T14:06:16.786Z,9.60
2019-02-19T14:07:16.712Z,8.90
2019-02-19T14:08:16.631Z,9.40
2019-02-19T14:09:16.546Z,9.00
2019-02-19T14:10:16.462Z,9.40
2019-02-19T14:11:16.385Z,8.70
2019-02-19T14:12:16.297Z,8.90
2019-02-19T14:13:16.212Z,8.80
2019-02-19T14:14:16.136Z,9.00
2019-02-19T14:15:16.060Z,8.70
2019-02-19T14:16:15.974Z,8.80
2019-02-19T14:17:15.889Z,8.70
2019-02-19T14:18:15.812Z,8.50
2019-02-19T14:19:21.110Z,8.10
2019-02-19T14:20:15.636Z,8.70
2019-02-19T14:21:15.560Z,9.00
2019-02-19T14:22:15.472Z,8.60
2019-02-19T14:23:15.398Z,8.60
2019-02-19T14:24:15.315Z,8.50
2019-02-19T14:25:15.238Z,8.50
2019-02-19T14:26:15.150Z,8.70
2019-02-19T14:27:15.089Z,8.40
2019-02-19T14:28:14.989Z,8.60
2019-02-19T14:29:14.901Z,8.20
2019-02-19T14:30:14.825Z,8.20
2019-02-19T14:31:14.755Z,8.20
2019-02-19T14:32:14.661Z,8.50
2019-02-19T14:33:14.573Z,8.40
2019-02-19T14:34:14.499Z,8.90
2019-02-19T14:35:14.412Z,8.50
2019-02-19T14:36:14.327Z,9.20
2019-02-19T14:37:14.258Z,9.00
2019-02-19T14:38:14.164Z,8.80
2019-02-19T14:39:14.090Z,8.90
2019-02-19T14:40:14.003Z,8.40
2019-02-19T14:41:13.924Z,8.50
2019-02-19T14:42:13.839Z,8.20
2019-02-19T14:43:13.768Z,8.20
2019-02-19T14:44:13.676Z,8.80
2019-02-19T14:45:13.588Z,8.90
2019-02-19T14:46:13.513Z,9.10
2019-02-19T14:47:13.425Z,8.90
2019-02-19T14:48:13.353Z,9.10
2019-02-19T14:49:13.265Z,9.20
2019-02-19T14:50:13.192Z,8.60
2019-02-19T14:51:13.105Z,8.90
2019-02-19T14:52:13.025Z,8.80
2019-02-19T14:53:12.938Z,9.00
2019-02-19T14:54:12.883Z,9.00
2019-02-19T14:55:12.777Z,8.90
2019-02-19T14:56:12.691Z,8.80
2019-02-19T14:57:12.617Z,9.10
2019-02-19T14:58:12.530Z,8.90
2019-02-19T14:59:12.456Z,8.80
2019-02-19T15:00:12.367Z,8.80
2019-02-19T15:01:12.292Z,8.60
2019-02-19T15:02:12.204Z,9.00
2019-02-19T15:03:12.120Z,8.70
2019-02-19T15:04:12.040Z,8.30
2019-02-19T15:05:11.958Z,8.80
2019-02-19T15:06:11.865Z,8.20
2019-02-19T15:07:13.426Z,8.70
2019-02-19T15:08:11.710Z,8.90
2019-02-19T15:09:11.643Z,9.40
2019-02-19T15:10:11.543Z,8.90
2019-02-19T15:11:11.471Z,9.00
2019-02-19T15:12:11.389Z,8.80
2019-02-19T15:13:11.291Z,8.80
2019-02-19T15:14:11.217Z,9.20
2019-02-19T15:15:11.129Z,8.80
2019-02-19T15:16:11.056Z,8.60
2019-02-19T15:17:10.969Z,8.40
2019-02-19T15:18:10.885Z,8.70
2019-02-19T15:19:10.806Z,8.90
2019-02-19T15:20:10.717Z,8.70
2019-02-19T15:21:10.642Z,8.70
2019-02-19T15:22:10.555Z,8.50
2019-02-19T15:23:10.479Z,8.50
2019-02-19T15:24:10.395Z,8.70
2019-02-19T15:25:10.308Z,8.50
2019-02-19T15:26:10.231Z,8.00
2019-02-19T15:27:10.144Z,8.70
2019-02-19T15:28:10.068Z,8.30
2019-02-19T15:29:09.980Z,7.80
2019-02-19T15:30:09.894Z,8.20
2019-02-19T15:31:09.819Z,7.90
2019-02-19T15:32:09.730Z,7.60
2019-02-19T15:33:09.667Z,7.70
2019-02-19T15:34:09.568Z,7.60
2019-02-19T15:35:09.493Z,8.00
2019-02-19T15:36:09.407Z,8.00
2019-02-19T15:37:10.658Z,7.90
2019-02-19T15:38:09.250Z,7.90
2019-02-19T15:39:09.159Z,8.10
2019-02-19T15:40:09.080Z,7.70
2019-02-19T15:41:08.995Z,7.40
2019-02-19T15:42:08.919Z,7.80
2019-02-19T15:43:08.831Z,7.40
2019-02-19T15:44:08.750Z,7.10
2019-02-19T15:45:08.671Z,7.20
2019-02-19T15:46:08.583Z,6.80
2019-02-19T15:47:08.498Z,7.90
2019-02-19T15:48:08.446Z,7.10
2019-02-19T15:49:08.334Z,7.00
2019-02-19T15:50:08.260Z,6.90
2019-02-19T15:51:08.172Z,7.40
2019-02-19T15:52:08.085Z,6.70
2019-02-19T15:53:08.026Z,6.90
2019-02-19T15:54:07.919Z,7.00
2019-02-19T15:55:07.845Z,6.90
2019-02-19T15:56:07.759Z,6.70
2019-02-19T15:57:07.672Z,6.90
2019-02-19T15:58:07.597Z,6.50
2019-02-19T15:59:07.511Z,6.40
2019-02-19T16:00:07.432Z,6.20
2019-02-19T16:01:07.350Z,6.60
2019-02-19T16:02:07.258Z,6.70
2019-02-19T16:03:07.183Z,6.20
2019-02-19T16:04:07.103Z,6.40
2019-02-19T16:05:07.029Z,6.30
2019-02-19T16:06:06.934Z,6.10
2019-02-19T16:07:06.854Z,6.00
2019-02-19T16:08:06.775Z,6.40
2019-02-19T16:09:06.685Z,5.60
2019-02-19T16:10:06.600Z,6.40
2019-02-19T16:11:06.525Z,6.40
2019-02-19T16:12:06.447Z,6.00
2019-02-19T16:13:06.359Z,6.30
2019-02-19T16:14:06.272Z,5.80
2019-02-19T16:15:06.188Z,5.90
2019-02-19T16:16:06.135Z,5.80
2019-02-19T16:17:06.025Z,6.10
2019-02-19T16:18:06.054Z,6.10
2019-02-19T16:19:05.866Z,5.90
2019-02-19T16:20:05.775Z,6.10
2019-02-19T16:21:05.706Z,5.80
2019-02-19T16:22:05.625Z,6.30
2019-02-19T16:23:05.529Z,6.30
2019-02-19T16:24:05.456Z,5.80
2019-02-19T16:25:05.361Z,6.00
2019-02-19T16:26:05.285Z,5.80
2019-02-19T16:27:05.200Z,5.80
2019-02-19T16:28:05.114Z,5.70
2019-02-19T16:29:05.037Z,5.40
2019-02-19T16:30:04.953Z,5.50
2019-02-19T16:31:04.868Z,5.70
2019-02-19T16:32:04.785Z,5.70
2019-02-19T16:33:04.699Z,5.20
2019-02-19T16:34:04.631Z,5.80
2019-02-19T16:35:04.537Z,5.50
2019-02-19T16:36:04.450Z,6.30
2019-02-19T16:37:04.374Z,5.90
2019-02-19T16:38:04.286Z,5.70
2019-02-19T16:39:04.211Z,6.00
2019-02-19T16:40:04.127Z,5.80
2019-02-19T16:41:04.051Z,6.20
2019-02-19T16:42:03.964Z,5.80
2019-02-19T16:43:03.877Z,6.00
2019-02-19T16:44:03.788Z,6.10
2019-02-19T16:45:03.718Z,5.80
2019-02-19T16:46:03.625Z,5.40
2019-02-19T16:47:03.545Z,5.30
2019-02-19T16:48:03.470Z,5.60
2019-02-19T16:49:03.378Z,5.30
2019-02-19T16:50:07.681Z,5.30
2019-02-19T16:51:03.217Z,5.30
2019-02-19T16:52:03.129Z,5.20
2019-02-19T16:53:03.053Z,5.10
2019-02-19T16:54:02.993Z,5.20
2019-02-19T16:55:02.879Z,4.70
2019-02-19T16:56:02.801Z,5.20
2019-02-19T16:57:02.713Z,5.30
2019-02-19T16:58:02.641Z,5.00
2019-02-19T16:59:07.491Z,5.40
2019-02-19T17:00:02.487Z,5.20
2019-02-19T17:01:02.391Z,5.30
2019-02-19T17:02:02.320Z,4.70
2019-02-19T17:03:02.216Z,5.10
2019-02-19T17:04:03.425Z,4.60
2019-02-19T17:05:02.079Z,5.20
2019-02-19T17:06:01.969Z,5.30
2019-02-19T17:07:01.889Z,5.10
2019-02-19T17:08:01.805Z,5.40
2019-02-19T17:09:01.728Z,5.00
2019-02-19T17:10:01.640Z,4.80
2019-02-19T17:11:01.557Z,4.70
2019-02-19T17:12:01.481Z,5.10
2019-02-19T17:13:01.394Z,4.80
2019-02-19T17:14:01.313Z,4.60
2019-02-19T17:15:01.231Z,4.70
2019-02-19T17:16:01.143Z,5.00
2019-02-19T17:17:01.066Z,4.80
2019-02-19T17:18:00.979Z,5.10
2019-02-19T17:19:00.891Z,5.10
2019-02-19T17:20:01.082Z,4.80
2019-02-19T17:21:00.731Z,4.60
2019-02-19T17:22:00.643Z,5.00
2019-02-19T17:23:00.568Z,4.40
2019-02-19T17:24:00.479Z,4.80
2019-02-19T17:25:00.399Z,4.50
2019-02-19T17:26:00.317Z,4.80
2019-02-19T17:27:00.230Z,4.90
2019-02-19T17:28:00.145Z,4.80
2019-02-19T17:29:00.078Z,4.60
2019-02-19T17:29:59.983Z,4.60
2019-02-19T17:30:59.907Z,4.60
2019-02-19T17:31:59.817Z,4.90
2019-02-19T17:32:59.732Z,4.90
2019-02-19T17:33:59.657Z,4.50
2019-02-19T17:34:59.573Z,4.40
2019-02-19T17:35:59.482Z,4.80
2019-02-19T17:36:59.408Z,4.50
2019-02-19T17:37:59.326Z,4.20
2019-02-19T17:38:59.245Z,4.30
2019-02-19T17:39:59.159Z,4.50
2019-02-19T17:40:59.071Z,4.40
2019-02-19T17:41:58.995Z,4.50
2019-02-19T17:42:58.909Z,4.40
2019-02-19T17:43:58.818Z,4.40
2019-02-19T17:44:58.746Z,4.40
2019-02-19T17:45:58.657Z,4.00
2019-02-19T17:46:58.569Z,4.40
2019-02-19T17:47:58.496Z,4.00
2019-02-19T17:48:58.410Z,3.80
2019-02-19T17:49:58.325Z,3.90
2019-02-19T17:50:58.251Z,3.90
2019-02-19T17:51:58.173Z,4.10
2019-02-19T17:52:58.083Z,3.80
2019-02-19T17:53:58.021Z,3.60
2019-02-19T17:54:57.908Z,3.60
2019-02-19T17:55:57.835Z,3.70
2019-02-19T17:56:57.745Z,3.60
2019-02-19T17:57:57.657Z,3.50
2019-02-19T17:58:57.811Z,3.70
2019-02-19T17:59:57.511Z,3.40
2019-02-19T18:00:57.426Z,3.60
2019-02-19T18:01:57.340Z,3.30
2019-02-19T18:02:57.247Z,3.60
2019-02-19T18:03:57.175Z,3.40
2019-02-19T18:04:57.091Z,3.60
2019-02-19T18:05:56.997Z,3.60
2019-02-19T18:06:56.923Z,3.70
2019-02-19T18:07:56.836Z,3.40
2019-02-19T18:08:56.748Z,3.50
2019-02-19T18:09:56.673Z,3.30
2019-02-19T18:10:56.586Z,3.10
2019-02-19T18:11:56.499Z,3.60